sensor_id;sensor_type;location;lat;lon;timestamp;pressure;altitude;pressure_sealevel;temperature;humidity
63088;BME280;49173;43.164;27.786;2023-02-19T00:01:44;100472.19;;;10.56;60.70
63088;BME280;49173;43.164;27.786;2023-02-19T00:04:16;100471.34;;;10.55;60.70
63088;BME280;49173;43.164;27.786;2023-02-19T00:06:43;100462.34;;;10.56;60.72
63088;BME280;49173;43.164;27.786;2023-02-19T00:09:11;100464.97;;;10.58;60.66
63088;BME280;49173;43.164;27.786;2023-02-19T00:11:38;100464.88;;;10.59;60.53
63088;BME280;49173;43.164;27.786;2023-02-19T00:14:04;100461.16;;;10.62;60.38
63088;BME280;49173;43.164;27.786;2023-02-19T00:16:32;100459.22;;;10.64;60.40
63088;BME280;49173;43.164;27.786;2023-02-19T00:19:00;100465.50;;;10.64;60.15
63088;BME280;49173;43.164;27.786;2023-02-19T00:21:27;100452.13;;;10.63;60.33
63088;BME280;49173;43.164;27.786;2023-02-19T00:23:55;100458.38;;;10.63;60.20
63088;BME280;49173;43.164;27.786;2023-02-19T00:26:22;100445.75;;;10.65;60.33
63088;BME280;49173;43.164;27.786;2023-02-19T00:28:49;100432.41;;;10.64;60.27
63088;BME280;49173;43.164;27.786;2023-02-19T00:31:22;100437.06;;;10.60;60.42
63088;BME280;49173;43.164;27.786;2023-02-19T00:33:50;100429.97;;;10.59;60.49
63088;BME280;49173;43.164;27.786;2023-02-19T00:36:17;100430.75;;;10.61;60.39
63088;BME280;49173;43.164;27.786;2023-02-19T00:38:43;100436.91;;;10.63;60.28
63088;BME280;49173;43.164;27.786;2023-02-19T00:41:11;100420.09;;;10.60;60.17
63088;BME280;49173;43.164;27.786;2023-02-19T00:43:54;100412.84;;;10.62;60.13
63088;BME280;49173;43.164;27.786;2023-02-19T00:46:35;100413.78;;;10.61;60.09
63088;BME280;49173;43.164;27.786;2023-02-19T00:49:02;100410.91;;;10.64;59.99
63088;BME280;49173;43.164;27.786;2023-02-19T00:51:31;100406.59;;;10.61;59.77
63088;BME280;49173;43.164;27.786;2023-02-19T00:53:58;100411.97;;;10.61;59.72
63088;BME280;49173;43.164;27.786;2023-02-19T00:56:24;100392.50;;;10.58;59.60
63088;BME280;49173;43.164;27.786;2023-02-19T00:58:50;100390.81;;;10.55;59.62
63088;BME280;49173;43.164;27.786;2023-02-19T01:01:16;100388.94;;;10.57;59.63
63088;BME280;49173;43.164;27.786;2023-02-19T01:03:43;100377.06;;;10.61;59.51
63088;BME280;49173;43.164;27.786;2023-02-19T01:06:10;100370.75;;;10.62;59.29
63088;BME280;49173;43.164;27.786;2023-02-19T01:08:36;100370.75;;;10.62;59.29
63088;BME280;49173;43.164;27.786;2023-02-19T01:11:04;100372.56;;;10.62;59.29
63088;BME280;49173;43.164;27.786;2023-02-19T01:13:30;100365.38;;;10.62;59.23
63088;BME280;49173;43.164;27.786;2023-02-19T01:16:04;100362.63;;;10.64;59.18
63088;BME280;49173;43.164;27.786;2023-02-19T01:18:30;100359.16;;;10.62;59.14
63088;BME280;49173;43.164;27.786;2023-02-19T01:20:56;100359.88;;;10.65;58.94
63088;BME280;49173;43.164;27.786;2023-02-19T01:23:22;100363.50;;;10.64;59.11
63088;BME280;49173;43.164;27.786;2023-02-19T01:25:47;100357.19;;;10.65;59.20
63088;BME280;49173;43.164;27.786;2023-02-19T01:28:13;100354.50;;;10.65;59.25
63088;BME280;49173;43.164;27.786;2023-02-19T01:30:39;100351.00;;;10.63;59.19
63088;BME280;49173;43.164;27.786;2023-02-19T01:33:07;100344.63;;;10.66;59.12
63088;BME280;49173;43.164;27.786;2023-02-19T01:35:37;100344.63;;;10.66;59.35
63088;BME280;49173;43.164;27.786;2023-02-19T01:38:03;100348.00;;;10.69;59.12
63088;BME280;49173;43.164;27.786;2023-02-19T01:40:34;100347.03;;;10.70;59.01
63088;BME280;49173;43.164;27.786;2023-02-19T01:43:00;100352.41;;;10.70;58.93
63088;BME280;49173;43.164;27.786;2023-02-19T01:45:33;100357.78;;;10.70;58.90
63088;BME280;49173;43.164;27.786;2023-02-19T01:48:11;100348.09;;;10.68;58.92
63088;BME280;49173;43.164;27.786;2023-02-19T01:50:43;100338.31;;;10.67;58.92
63088;BME280;49173;43.164;27.786;2023-02-19T01:53:12;100337.34;;;10.68;58.89
63088;BME280;49173;43.164;27.786;2023-02-19T01:55:40;100329.19;;;10.69;58.99
63088;BME280;49173;43.164;27.786;2023-02-19T01:58:07;100330.06;;;10.70;58.98
63088;BME280;49173;43.164;27.786;2023-02-19T02:00:34;100319.34;;;10.70;58.92
63088;BME280;49173;43.164;27.786;2023-02-19T02:03:00;100315.78;;;10.69;59.04
63088;BME280;49173;43.164;27.786;2023-02-19T02:05:48;100317.78;;;10.66;59.17
63088;BME280;49173;43.164;27.786;2023-02-19T02:08:16;100325.13;;;10.62;59.12
63088;BME280;49173;43.164;27.786;2023-02-19T02:11:02;100319.00;;;10.60;59.13
63088;BME280;49173;43.164;27.786;2023-02-19T02:13:29;100309.31;;;10.58;59.08
63088;BME280;49173;43.164;27.786;2023-02-19T02:16:53;100308.44;;;10.57;58.92
63088;BME280;49173;43.164;27.786;2023-02-19T02:24:43;100306.25;;;10.64;58.41
63088;BME280;49173;43.164;27.786;2023-02-19T02:30:16;100309.31;;;10.73;58.14
63088;BME280;49173;43.164;27.786;2023-02-19T02:33:00;100312.94;;;10.72;57.79
63088;BME280;49173;43.164;27.786;2023-02-19T02:35:34;100320.91;;;10.74;57.73
63088;BME280;49173;43.164;27.786;2023-02-19T02:38:08;100320.91;;;10.74;57.69
63088;BME280;49173;43.164;27.786;2023-02-19T02:40:36;100317.44;;;10.72;57.63
63088;BME280;49173;43.164;27.786;2023-02-19T02:43:06;100323.84;;;10.69;57.51
63088;BME280;49173;43.164;27.786;2023-02-19T02:45:32;100313.97;;;10.70;57.31
63088;BME280;49173;43.164;27.786;2023-02-19T02:51:13;100312.56;;;10.63;57.45
63088;BME280;49173;43.164;27.786;2023-02-19T02:54:00;100310.16;;;10.58;57.48
63088;BME280;49173;43.164;27.786;2023-02-19T02:56:47;100318.22;;;10.58;57.18
63088;BME280;49173;43.164;27.786;2023-02-19T02:59:17;100323.75;;;10.55;57.43
63088;BME280;49173;43.164;27.786;2023-02-19T03:01:57;100331.03;;;10.53;57.47
63088;BME280;49173;43.164;27.786;2023-02-19T03:07:26;100332.31;;;10.46;57.92
63088;BME280;49173;43.164;27.786;2023-02-19T03:09:55;100330.41;;;10.48;57.67
63088;BME280;49173;43.164;27.786;2023-02-19T03:12:24;100334.13;;;10.45;57.65
63088;BME280;49173;43.164;27.786;2023-02-19T03:15:11;100335.31;;;10.40;57.63
63088;BME280;49173;43.164;27.786;2023-02-19T03:18:00;100340.06;;;10.35;57.97
63088;BME280;49173;43.164;27.786;2023-02-19T03:20:50;100339.28;;;10.33;58.01
63088;BME280;49173;43.164;27.786;2023-02-19T03:23:19;100329.41;;;10.33;58.01
63088;BME280;49173;43.164;27.786;2023-02-19T03:26:09;100332.09;;;10.33;57.84
63088;BME280;49173;43.164;27.786;2023-02-19T03:28:37;100336.78;;;10.30;58.04
63088;BME280;49173;43.164;27.786;2023-02-19T03:31:26;100336.25;;;10.23;58.23
63088;BME280;49173;43.164;27.786;2023-02-19T03:33:57;100331.00;;;10.20;58.37
63088;BME280;49173;43.164;27.786;2023-02-19T03:36:27;100336.63;;;10.15;58.16
63088;BME280;49173;43.164;27.786;2023-02-19T03:39:03;100341.03;;;10.16;58.08
63088;BME280;49173;43.164;27.786;2023-02-19T03:46:50;100340.06;;;10.35;56.60
63088;BME280;49173;43.164;27.786;2023-02-19T03:55:02;100335.28;;;10.57;55.48
63088;BME280;49173;43.164;27.786;2023-02-19T04:02:56;100329.47;;;10.65;54.78
63088;BME280;49173;43.164;27.786;2023-02-19T04:05:26;100334.56;;;10.69;54.57
63088;BME280;49173;43.164;27.786;2023-02-19T04:07:58;100337.88;;;10.75;54.33
63088;BME280;49173;43.164;27.786;2023-02-19T04:10:26;100332.16;;;10.81;53.95
63088;BME280;49173;43.164;27.786;2023-02-19T04:12:58;100327.47;;;10.84;53.62
63088;BME280;49173;43.164;27.786;2023-02-19T04:15:29;100326.44;;;10.87;53.38
63088;BME280;49173;43.164;27.786;2023-02-19T04:18:03;100327.22;;;10.89;52.97
63088;BME280;49173;43.164;27.786;2023-02-19T04:20:34;100330.16;;;11.00;52.74
63088;BME280;49173;43.164;27.786;2023-02-19T04:23:01;100338.91;;;11.04;52.43
63088;BME280;49173;43.164;27.786;2023-02-19T04:25:28;100364.34;;;11.12;52.09
63088;BME280;49173;43.164;27.786;2023-02-19T04:27:55;100364.97;;;11.17;51.88
63088;BME280;49173;43.164;27.786;2023-02-19T04:30:21;100373.81;;;11.19;51.83
63088;BME280;49173;43.164;27.786;2023-02-19T04:32:46;100372.84;;;11.20;51.60
63088;BME280;49173;43.164;27.786;2023-02-19T04:35:14;100374.59;;;11.21;51.43
63088;BME280;49173;43.164;27.786;2023-02-19T04:37:39;100376.47;;;11.19;51.30
63088;BME280;49173;43.164;27.786;2023-02-19T04:40:06;100380.13;;;11.18;51.62
63088;BME280;49173;43.164;27.786;2023-02-19T04:42:31;100383.78;;;11.17;51.55
63088;BME280;49173;43.164;27.786;2023-02-19T04:44:57;100389.16;;;11.17;51.46
63088;BME280;49173;43.164;27.786;2023-02-19T04:47:23;100394.34;;;11.20;51.41
63088;BME280;49173;43.164;27.786;2023-02-19T04:49:49;100380.03;;;11.20;51.37
63088;BME280;49173;43.164;27.786;2023-02-19T04:52:15;100383.25;;;11.26;51.09
63088;BME280;49173;43.164;27.786;2023-02-19T04:54:41;100366.88;;;11.31;50.68
63088;BME280;49173;43.164;27.786;2023-02-19T04:57:06;100363.13;;;11.34;51.12
63088;BME280;49173;43.164;27.786;2023-02-19T04:59:32;100369.00;;;11.40;50.89
63088;BME280;49173;43.164;27.786;2023-02-19T05:01:58;100380.63;;;11.41;50.70
63088;BME280;49173;43.164;27.786;2023-02-19T05:04:27;100388.63;;;11.42;50.68
63088;BME280;49173;43.164;27.786;2023-02-19T05:06:52;100381.41;;;11.43;50.57
63088;BME280;49173;43.164;27.786;2023-02-19T05:09:18;100396.59;;;11.44;50.75
63088;BME280;49173;43.164;27.786;2023-02-19T05:11:44;100389.13;;;11.49;50.60
63088;BME280;49173;43.164;27.786;2023-02-19T05:14:10;100408.00;;;11.47;50.51
63088;BME280;49173;43.164;27.786;2023-02-19T05:16:35;100415.03;;;11.50;50.39
63088;BME280;49173;43.164;27.786;2023-02-19T05:19:01;100429.44;;;11.49;50.63
63088;BME280;49173;43.164;27.786;2023-02-19T05:21:27;100432.91;;;11.51;50.48
63088;BME280;49173;43.164;27.786;2023-02-19T05:23:53;100435.59;;;11.51;50.37
63088;BME280;49173;43.164;27.786;2023-02-19T05:26:21;100443.09;;;11.60;50.27
63088;BME280;49173;43.164;27.786;2023-02-19T05:28:50;100449.00;;;11.67;50.02
63088;BME280;49173;43.164;27.786;2023-02-19T05:31:16;100454.38;;;11.67;50.18
63088;BME280;49173;43.164;27.786;2023-02-19T05:33:42;100452.28;;;11.72;50.35
63088;BME280;49173;43.164;27.786;2023-02-19T05:36:12;100450.38;;;11.90;50.01
63088;BME280;49173;43.164;27.786;2023-02-19T05:38:39;100459.94;;;12.09;49.91
63088;BME280;49173;43.164;27.786;2023-02-19T05:41:10;100467.88;;;12.27;49.54
63088;BME280;49173;43.164;27.786;2023-02-19T05:43:37;100479.34;;;12.45;48.96
63088;BME280;49173;43.164;27.786;2023-02-19T05:46:04;100488.06;;;12.78;48.52
63088;BME280;49173;43.164;27.786;2023-02-19T05:48:31;100498.44;;;13.13;47.63
63088;BME280;49173;43.164;27.786;2023-02-19T05:51:05;100506.72;;;13.38;46.95
63088;BME280;49173;43.164;27.786;2023-02-19T05:53:31;100497.78;;;13.65;46.54
63088;BME280;49173;43.164;27.786;2023-02-19T05:55:57;100507.97;;;14.01;45.88
63088;BME280;49173;43.164;27.786;2023-02-19T05:58:23;100495.06;;;14.59;44.63
63088;BME280;49173;43.164;27.786;2023-02-19T06:00:50;100498.72;;;15.34;43.01
63088;BME280;49173;43.164;27.786;2023-02-19T06:03:16;100504.19;;;15.95;41.91
63088;BME280;49173;43.164;27.786;2023-02-19T06:05:42;100511.03;;;16.11;41.56
63088;BME280;49173;43.164;27.786;2023-02-19T06:08:11;100497.63;;;15.86;41.78
63088;BME280;49173;43.164;27.786;2023-02-19T06:10:37;100507.97;;;15.43;42.53
63088;BME280;49173;43.164;27.786;2023-02-19T06:13:09;100508.06;;;15.04;43.25
63088;BME280;49173;43.164;27.786;2023-02-19T06:15:35;100522.75;;;14.75;44.43
63088;BME280;49173;43.164;27.786;2023-02-19T06:18:02;100524.66;;;14.47;44.82
63088;BME280;49173;43.164;27.786;2023-02-19T06:20:28;100536.50;;;14.32;45.49
63088;BME280;49173;43.164;27.786;2023-02-19T06:22:54;100545.63;;;14.17;45.89
63088;BME280;49173;43.164;27.786;2023-02-19T06:25:20;100552.41;;;14.10;46.27
63088;BME280;49173;43.164;27.786;2023-02-19T06:27:45;100544.78;;;14.02;46.58
63088;BME280;49173;43.164;27.786;2023-02-19T06:30:11;100545.28;;;13.94;46.73
63088;BME280;49173;43.164;27.786;2023-02-19T06:32:37;100541.56;;;13.97;46.84
63088;BME280;49173;43.164;27.786;2023-02-19T06:35:03;100541.69;;;14.08;46.71
63088;BME280;49173;43.164;27.786;2023-02-19T06:37:30;100554.19;;;14.36;46.12
63088;BME280;49173;43.164;27.786;2023-02-19T06:39:55;100554.41;;;14.73;45.56
63088;BME280;49173;43.164;27.786;2023-02-19T06:42:21;100557.13;;;14.98;45.27
63088;BME280;49173;43.164;27.786;2023-02-19T06:44:47;100558.66;;;15.02;44.93
63088;BME280;49173;43.164;27.786;2023-02-19T06:47:13;100576.59;;;15.03;45.34
63088;BME280;49173;43.164;27.786;2023-02-19T06:49:39;100566.09;;;14.99;45.30
63088;BME280;49173;43.164;27.786;2023-02-19T06:52:05;100570.56;;;14.87;45.42
63088;BME280;49173;43.164;27.786;2023-02-19T06:54:31;100554.09;;;14.77;45.90
63088;BME280;49173;43.164;27.786;2023-02-19T06:56:58;100551.69;;;14.73;45.59
63088;BME280;49173;43.164;27.786;2023-02-19T06:59:25;100549.75;;;14.62;46.27
63088;BME280;49173;43.164;27.786;2023-02-19T07:01:51;100542.50;;;14.50;45.83
63088;BME280;49173;43.164;27.786;2023-02-19T07:04:20;100539.72;;;14.37;46.29
63088;BME280;49173;43.164;27.786;2023-02-19T07:06:50;100540.34;;;14.28;46.82
63088;BME280;49173;43.164;27.786;2023-02-19T07:09:19;100544.25;;;14.24;46.61
63088;BME280;49173;43.164;27.786;2023-02-19T07:11:46;100545.53;;;14.18;47.16
63088;BME280;49173;43.164;27.786;2023-02-19T07:14:16;100556.59;;;14.14;46.94
63088;BME280;49173;43.164;27.786;2023-02-19T07:16:43;100547.19;;;14.07;46.75
63088;BME280;49173;43.164;27.786;2023-02-19T07:19:09;100551.84;;;14.05;46.92
63088;BME280;49173;43.164;27.786;2023-02-19T07:21:41;100536.50;;;14.05;46.67
63088;BME280;49173;43.164;27.786;2023-02-19T07:24:08;100540.06;;;14.06;46.57
63088;BME280;49173;43.164;27.786;2023-02-19T07:26:37;100544.38;;;14.08;47.13
63088;BME280;49173;43.164;27.786;2023-02-19T07:29:06;100529.84;;;14.11;47.02
63088;BME280;49173;43.164;27.786;2023-02-19T07:31:32;100545.25;;;14.09;47.01
63088;BME280;49173;43.164;27.786;2023-02-19T07:34:00;100547.94;;;14.09;46.90
63088;BME280;49173;43.164;27.786;2023-02-19T07:36:27;100558.19;;;14.04;47.24
63088;BME280;49173;43.164;27.786;2023-02-19T07:38:57;100569.00;;;14.04;47.27
63088;BME280;49173;43.164;27.786;2023-02-19T07:41:25;100573.72;;;14.00;47.18
63088;BME280;49173;43.164;27.786;2023-02-19T07:43:53;100581.91;;;13.98;47.22
63088;BME280;49173;43.164;27.786;2023-02-19T07:46:23;100588.88;;;14.02;47.63
63088;BME280;49173;43.164;27.786;2023-02-19T07:48:50;100583.66;;;13.99;47.82
63088;BME280;49173;43.164;27.786;2023-02-19T07:51:20;100586.34;;;13.99;47.98
63088;BME280;49173;43.164;27.786;2023-02-19T07:53:50;100575.25;;;14.04;48.09
63088;BME280;49173;43.164;27.786;2023-02-19T07:56:18;100570.41;;;14.09;47.54
63088;BME280;49173;43.164;27.786;2023-02-19T07:58:47;100558.75;;;14.09;47.45
63088;BME280;49173;43.164;27.786;2023-02-19T08:01:16;100566.94;;;14.07;47.43
63088;BME280;49173;43.164;27.786;2023-02-19T08:03:44;100555.09;;;14.10;47.61
63088;BME280;49173;43.164;27.786;2023-02-19T08:06:11;100577.44;;;14.12;47.84
63088;BME280;49173;43.164;27.786;2023-02-19T08:08:41;100559.72;;;14.08;47.71
63088;BME280;49173;43.164;27.786;2023-02-19T08:11:08;100560.06;;;14.16;47.87
63088;BME280;49173;43.164;27.786;2023-02-19T08:13:53;100553.50;;;14.20;47.80
63088;BME280;49173;43.164;27.786;2023-02-19T08:16:21;100556.78;;;14.25;47.82
63088;BME280;49173;43.164;27.786;2023-02-19T08:18:48;100548.44;;;14.28;47.81
63088;BME280;49173;43.164;27.786;2023-02-19T08:21:15;100541.63;;;14.22;47.57
63088;BME280;49173;43.164;27.786;2023-02-19T08:23:47;100521.75;;;14.23;47.87
63088;BME280;49173;43.164;27.786;2023-02-19T08:26:16;100531.28;;;14.29;48.00
63088;BME280;49173;43.164;27.786;2023-02-19T08:28:42;100538.84;;;14.24;47.74
63088;BME280;49173;43.164;27.786;2023-02-19T08:31:11;100540.75;;;14.22;48.09
63088;BME280;49173;43.164;27.786;2023-02-19T08:33:37;100527.81;;;14.27;48.15
63088;BME280;49173;43.164;27.786;2023-02-19T08:36:06;100537.13;;;14.36;47.82
63088;BME280;49173;43.164;27.786;2023-02-19T08:38:35;100525.06;;;14.41;47.76
63088;BME280;49173;43.164;27.786;2023-02-19T08:41:06;100537.59;;;14.42;47.96
63088;BME280;49173;43.164;27.786;2023-02-19T08:43:33;100538.19;;;14.47;47.89
63088;BME280;49173;43.164;27.786;2023-02-19T08:46:04;100536.97;;;14.51;48.04
63088;BME280;49173;43.164;27.786;2023-02-19T08:48:32;100540.66;;;14.50;48.14
63088;BME280;49173;43.164;27.786;2023-02-19T08:51:06;100538.19;;;14.47;48.44
63088;BME280;49173;43.164;27.786;2023-02-19T08:53:38;100549.84;;;14.48;48.41
63088;BME280;49173;43.164;27.786;2023-02-19T08:56:13;100543.03;;;14.55;48.86
63088;BME280;49173;43.164;27.786;2023-02-19T08:58:41;100533.97;;;14.56;48.54
63088;BME280;49173;43.164;27.786;2023-02-19T09:01:11;100528.56;;;14.56;48.25
63088;BME280;49173;43.164;27.786;2023-02-19T09:03:38;100533.78;;;14.59;48.47
63088;BME280;49173;43.164;27.786;2023-02-19T09:06:12;100544.13;;;14.65;48.42
63088;BME280;49173;43.164;27.786;2023-02-19T09:08:40;100544.69;;;14.70;48.72
63088;BME280;49173;43.164;27.786;2023-02-19T09:11:09;100543.59;;;14.73;48.30
63088;BME280;49173;43.164;27.786;2023-02-19T09:13:36;100541.44;;;14.78;48.17
63088;BME280;49173;43.164;27.786;2023-02-19T09:16:03;100543.41;;;14.76;48.06
63088;BME280;49173;43.164;27.786;2023-02-19T09:18:31;100545.25;;;14.75;48.15
63088;BME280;49173;43.164;27.786;2023-02-19T09:21:03;100546.84;;;14.78;48.35
63088;BME280;49173;43.164;27.786;2023-02-19T09:23:35;100541.13;;;14.82;48.55
63088;BME280;49173;43.164;27.786;2023-02-19T09:26:05;100547.41;;;14.83;48.09
63088;BME280;49173;43.164;27.786;2023-02-19T09:28:36;100529.91;;;14.76;48.21
63088;BME280;49173;43.164;27.786;2023-02-19T09:31:14;100540.38;;;14.80;48.00
63088;BME280;49173;43.164;27.786;2023-02-19T09:33:45;100534.53;;;14.87;48.04
63088;BME280;49173;43.164;27.786;2023-02-19T09:36:14;100541.34;;;14.92;48.02
63088;BME280;49173;43.164;27.786;2023-02-19T09:38:41;100534.09;;;14.93;47.41
63088;BME280;49173;43.164;27.786;2023-02-19T09:41:28;100523.22;;;14.94;47.70
63088;BME280;49173;43.164;27.786;2023-02-19T09:44:01;100527.41;;;14.98;48.25
63088;BME280;49173;43.164;27.786;2023-02-19T09:46:50;100527.28;;;15.13;47.92
63088;BME280;49173;43.164;27.786;2023-02-19T09:49:35;100525.88;;;15.20;47.82
63088;BME280;49173;43.164;27.786;2023-02-19T09:52:07;100521.00;;;15.25;47.69
63088;BME280;49173;43.164;27.786;2023-02-19T09:54:38;100516.78;;;15.33;47.36
63088;BME280;49173;43.164;27.786;2023-02-19T09:57:13;100523.25;;;15.44;46.82
63088;BME280;49173;43.164;27.786;2023-02-19T09:59:52;100511.09;;;15.49;46.51
63088;BME280;49173;43.164;27.786;2023-02-19T10:02:24;100510.66;;;15.55;46.55
63088;BME280;49173;43.164;27.786;2023-02-19T10:04:52;100515.09;;;15.56;46.33
63088;BME280;49173;43.164;27.786;2023-02-19T10:07:24;100511.88;;;15.51;46.35
63088;BME280;49173;43.164;27.786;2023-02-19T10:09:58;100508.19;;;15.52;46.21
63088;BME280;49173;43.164;27.786;2023-02-19T10:12:31;100505.13;;;15.57;45.80
63088;BME280;49173;43.164;27.786;2023-02-19T10:15:08;100500.59;;;15.57;45.51
63088;BME280;49173;43.164;27.786;2023-02-19T10:17:41;100498.13;;;15.54;44.86
63088;BME280;49173;43.164;27.786;2023-02-19T10:20:14;100504.50;;;15.53;45.02
63088;BME280;49173;43.164;27.786;2023-02-19T10:22:44;100503.66;;;15.53;45.20
63088;BME280;49173;43.164;27.786;2023-02-19T10:25:16;100487.84;;;15.59;45.15
63088;BME280;49173;43.164;27.786;2023-02-19T10:27:46;100490.97;;;15.66;44.72
63088;BME280;49173;43.164;27.786;2023-02-19T10:30:19;100488.69;;;15.73;44.71
63088;BME280;49173;43.164;27.786;2023-02-19T10:33:12;100486.97;;;15.72;44.35
63088;BME280;49173;43.164;27.786;2023-02-19T10:38:23;100476.72;;;15.88;44.59
63088;BME280;49173;43.164;27.786;2023-02-19T10:41:02;100483.59;;;15.92;44.40
63088;BME280;49173;43.164;27.786;2023-02-19T10:43:35;100472.78;;;15.92;44.34
63088;BME280;49173;43.164;27.786;2023-02-19T10:46:14;100473.63;;;15.92;44.11
63088;BME280;49173;43.164;27.786;2023-02-19T10:49:06;100466.16;;;15.96;44.24
63088;BME280;49173;43.164;27.786;2023-02-19T10:51:45;100459.75;;;15.97;44.71
63088;BME280;49173;43.164;27.786;2023-02-19T10:54:32;100457.06;;;15.97;44.77
63088;BME280;49173;43.164;27.786;2023-02-19T10:57:29;100453.03;;;16.03;45.40
63088;BME280;49173;43.164;27.786;2023-02-19T11:00:20;100441.56;;;15.99;44.86
63088;BME280;49173;43.164;27.786;2023-02-19T11:03:19;100443.91;;;16.04;45.25
63088;BME280;49173;43.164;27.786;2023-02-19T11:06:02;100434.94;;;16.03;45.69
63088;BME280;49173;43.164;27.786;2023-02-19T11:08:44;100428.41;;;16.06;45.59
63088;BME280;49173;43.164;27.786;2023-02-19T11:11:23;100426.22;;;16.11;45.62
63088;BME280;49173;43.164;27.786;2023-02-19T11:13:53;100430.19;;;16.18;45.62
63088;BME280;49173;43.164;27.786;2023-02-19T11:16:20;100413.47;;;16.24;45.50
63088;BME280;49173;43.164;27.786;2023-02-19T11:18:55;100415.56;;;16.32;45.29
63088;BME280;49173;43.164;27.786;2023-02-19T11:21:25;100408.09;;;16.35;44.95
63088;BME280;49173;43.164;27.786;2023-02-19T11:23:54;100413.00;;;16.41;45.35
63088;BME280;49173;43.164;27.786;2023-02-19T11:26:26;100405.75;;;16.53;44.77
63088;BME280;49173;43.164;27.786;2023-02-19T11:28:56;100400.09;;;16.56;44.79
63088;BME280;49173;43.164;27.786;2023-02-19T11:31:31;100406.75;;;16.52;44.74
63088;BME280;49173;43.164;27.786;2023-02-19T11:36:45;100406.75;;;16.52;44.44
63088;BME280;49173;43.164;27.786;2023-02-19T11:39:20;100408.47;;;16.53;44.93
63088;BME280;49173;43.164;27.786;2023-02-19T11:50:43;100388.78;;;16.96;44.27
63088;BME280;49173;43.164;27.786;2023-02-19T11:53:27;100395.31;;;17.05;43.20
63088;BME280;49173;43.164;27.786;2023-02-19T12:01:52;100382.50;;;17.07;43.33
63088;BME280;49173;43.164;27.786;2023-02-19T12:04:36;100373.50;;;17.06;43.18
63088;BME280;49173;43.164;27.786;2023-02-19T12:08:11;100366.47;;;17.15;43.46
63088;BME280;49173;43.164;27.786;2023-02-19T12:22:32;100360.63;;;17.30;41.89
63088;BME280;49173;43.164;27.786;2023-02-19T12:28:44;100346.22;;;17.19;42.14
63088;BME280;49173;43.164;27.786;2023-02-19T12:36:36;100347.63;;;17.02;41.98
63088;BME280;49173;43.164;27.786;2023-02-19T12:39:29;100354.75;;;17.03;42.54
63088;BME280;49173;43.164;27.786;2023-02-19T12:44:54;100354.63;;;17.05;42.74
63088;BME280;49173;43.164;27.786;2023-02-19T12:47:30;100347.50;;;17.03;43.03
63088;BME280;49173;43.164;27.786;2023-02-19T12:52:40;100362.41;;;17.09;42.29
63088;BME280;49173;43.164;27.786;2023-02-19T12:55:23;100352.41;;;17.10;42.66
63088;BME280;49173;43.164;27.786;2023-02-19T12:57:55;100347.63;;;17.13;42.36
63088;BME280;49173;43.164;27.786;2023-02-19T13:00:32;100347.22;;;17.18;42.34
63088;BME280;49173;43.164;27.786;2023-02-19T13:03:24;100329.56;;;17.23;42.73
63088;BME280;49173;43.164;27.786;2023-02-19T13:06:23;100328.34;;;17.27;42.41
63088;BME280;49173;43.164;27.786;2023-02-19T13:09:06;100318.22;;;17.29;42.41
63088;BME280;49173;43.164;27.786;2023-02-19T13:11:41;100320.66;;;17.33;42.31
63088;BME280;49173;43.164;27.786;2023-02-19T13:14:44;100323.72;;;17.39;42.23
63088;BME280;49173;43.164;27.786;2023-02-19T13:20:36;100315.53;;;17.50;42.22
63088;BME280;49173;43.164;27.786;2023-02-19T13:26:23;100300.13;;;17.51;41.90
63088;BME280;49173;43.164;27.786;2023-02-19T13:37:07;100288.56;;;17.70;41.23
63088;BME280;49173;43.164;27.786;2023-02-19T13:39:34;100291.66;;;17.65;41.75
63088;BME280;49173;43.164;27.786;2023-02-19T13:42:04;100279.81;;;17.66;41.38
63088;BME280;49173;43.164;27.786;2023-02-19T13:44:34;100280.31;;;17.71;41.63
63088;BME280;49173;43.164;27.786;2023-02-19T13:47:03;100280.78;;;17.76;41.58
63088;BME280;49173;43.164;27.786;2023-02-19T13:56:02;100272.09;;;17.82;41.85
63088;BME280;49173;43.164;27.786;2023-02-19T13:58:35;100277.09;;;17.77;41.84
63088;BME280;49173;43.164;27.786;2023-02-19T14:01:08;100271.03;;;17.74;41.63
63088;BME280;49173;43.164;27.786;2023-02-19T14:06:04;100283.38;;;17.78;42.03
63088;BME280;49173;43.164;27.786;2023-02-19T14:08:55;100274.09;;;17.80;42.10
63088;BME280;49173;43.164;27.786;2023-02-19T14:14:26;100267.94;;;17.78;42.17
63088;BME280;49173;43.164;27.786;2023-02-19T14:17:01;100275.09;;;17.79;42.72
63088;BME280;49173;43.164;27.786;2023-02-19T14:19:50;100275.22;;;17.78;42.59
63088;BME280;49173;43.164;27.786;2023-02-19T14:30:58;100279.91;;;17.76;42.27
63088;BME280;49173;43.164;27.786;2023-02-19T14:33:35;100273.75;;;17.74;42.80
63088;BME280;49173;43.164;27.786;2023-02-19T14:39:19;100271.75;;;17.76;42.28
63088;BME280;49173;43.164;27.786;2023-02-19T14:41:50;100263.63;;;17.76;41.71
63088;BME280;49173;43.164;27.786;2023-02-19T14:44:53;100265.22;;;17.78;42.36
63088;BME280;49173;43.164;27.786;2023-02-19T14:47:24;100263.22;;;17.80;41.68
63088;BME280;49173;43.164;27.786;2023-02-19T14:49:52;100270.38;;;17.81;41.41
63088;BME280;49173;43.164;27.786;2023-02-19T14:52:38;100260.66;;;17.79;42.05
63088;BME280;49173;43.164;27.786;2023-02-19T14:55:31;100269.03;;;17.76;41.69
63088;BME280;49173;43.164;27.786;2023-02-19T14:58:02;100268.19;;;17.75;42.22
63088;BME280;49173;43.164;27.786;2023-02-19T15:00:36;100260.31;;;17.72;40.78